sensor_id;sensor_type;location;lat;lon;timestamp;P1;durP1;ratioP1;P2;durP2;ratioP2
63945;SDS011;50122;56.330;43.838;2022-10-23T13:44:32;15.95;;;9.13;;
63945;SDS011;50122;56.330;43.838;2022-10-23T13:47:02;15.68;;;12.07;;
63945;SDS011;50122;56.330;43.838;2022-10-23T13:49:30;15.27;;;9.10;;
63945;SDS011;50122;56.330;43.838;2022-10-23T13:51:56;21.38;;;14.32;;
63945;SDS011;50122;56.330;43.838;2022-10-23T13:54:27;22.67;;;16.65;;
63945;SDS011;50122;56.330;43.838;2022-10-23T13:56:54;20.55;;;14.52;;
63945;SDS011;50122;56.330;43.838;2022-10-23T13:59:22;14.63;;;10.18;;
63945;SDS011;50122;56.330;43.838;2022-10-23T14:01:49;23.83;;;17.52;;
63945;SDS011;50122;56.330;43.838;2022-10-23T14:04:17;14.57;;;10.40;;
63945;SDS011;50122;56.330;43.838;2022-10-23T14:06:44;13.85;;;9.77;;
63945;SDS011;50122;56.330;43.838;2022-10-23T14:09:13;15.30;;;10.07;;
63945;SDS011;50122;56.330;43.838;2022-10-23T14:11:42;15.80;;;10.45;;
63945;SDS011;50122;56.330;43.838;2022-10-23T14:14:09;16.52;;;10.13;;
63945;SDS011;50122;56.330;43.838;2022-10-23T14:16:36;15.25;;;9.02;;
63945;SDS011;50122;56.330;43.838;2022-10-23T14:19:03;15.20;;;9.73;;
63945;SDS011;50122;56.330;43.838;2022-10-23T14:21:30;13.90;;;9.63;;
63945;SDS011;50122;56.330;43.838;2022-10-23T14:23:56;14.18;;;9.18;;
63945;SDS011;50122;56.330;43.838;2022-10-23T14:26:24;15.32;;;8.50;;
63945;SDS011;50122;56.330;43.838;2022-10-23T14:28:55;13.85;;;8.02;;
63945;SDS011;50122;56.330;43.838;2022-10-23T14:31:32;15.98;;;9.18;;
63945;SDS011;50122;56.330;43.838;2022-10-23T14:33:59;14.45;;;8.35;;
63945;SDS011;50122;56.330;43.838;2022-10-23T14:36:27;14.07;;;10.45;;
63945;SDS011;50122;56.330;43.838;2022-10-23T14:39:14;12.88;;;7.45;;
63945;SDS011;50122;56.330;43.838;2022-10-23T14:41:41;16.10;;;9.50;;
63945;SDS011;50122;56.330;43.838;2022-10-23T14:44:10;12.93;;;8.95;;
63945;SDS011;50122;56.330;43.838;2022-10-23T14:46:37;15.63;;;9.63;;
63945;SDS011;50122;56.330;43.838;2022-10-23T14:49:04;16.65;;;8.82;;
63945;SDS011;50122;56.330;43.838;2022-10-23T14:51:31;15.27;;;9.30;;
63945;SDS011;50122;56.330;43.838;2022-10-23T14:53:58;13.75;;;9.27;;
63945;SDS011;50122;56.330;43.838;2022-10-23T14:56:35;13.85;;;8.82;;
63945;SDS011;50122;56.330;43.838;2022-10-23T14:59:03;14.52;;;8.73;;
63945;SDS011;50122;56.330;43.838;2022-10-23T15:01:48;12.77;;;9.57;;
63945;SDS011;50122;56.330;43.838;2022-10-23T15:04:16;18.65;;;11.48;;
63945;SDS011;50122;56.330;43.838;2022-10-23T15:06:43;15.60;;;8.20;;
63945;SDS011;50122;56.330;43.838;2022-10-23T15:09:10;10.48;;;6.63;;
63945;SDS011;50122;56.330;43.838;2022-10-23T15:11:37;14.82;;;7.72;;
63945;SDS011;50122;56.330;43.838;2022-10-23T15:14:04;10.65;;;7.72;;
63945;SDS011;50122;56.330;43.838;2022-10-23T15:16:30;11.60;;;7.35;;
63945;SDS011;50122;56.330;43.838;2022-10-23T15:18:58;10.48;;;6.90;;
63945;SDS011;50122;56.330;43.838;2022-10-23T15:21:24;12.13;;;7.22;;
63945;SDS011;50122;56.330;43.838;2022-10-23T15:23:51;12.77;;;6.15;;
63945;SDS011;50122;56.330;43.838;2022-10-23T15:26:20;10.40;;;5.70;;
63945;SDS011;50122;56.330;43.838;2022-10-23T15:28:55;13.95;;;6.47;;
63945;SDS011;50122;56.330;43.838;2022-10-23T15:34:07;9.18;;;5.78;;
63945;SDS011;50122;56.330;43.838;2022-10-23T15:36:36;10.02;;;5.10;;
63945;SDS011;50122;56.330;43.838;2022-10-23T15:39:06;10.93;;;5.57;;
63945;SDS011;50122;56.330;43.838;2022-10-23T15:41:35;10.65;;;4.95;;
63945;SDS011;50122;56.330;43.838;2022-10-23T15:44:04;7.10;;;4.70;;
63945;SDS011;50122;56.330;43.838;2022-10-23T15:46:33;7.18;;;4.43;;
63945;SDS011;50122;56.330;43.838;2022-10-23T15:49:00;7.05;;;4.25;;
63945;SDS011;50122;56.330;43.838;2022-10-23T15:51:27;12.95;;;5.85;;
63945;SDS011;50122;56.330;43.838;2022-10-23T15:53:53;8.57;;;5.10;;
63945;SDS011;50122;56.330;43.838;2022-10-23T15:56:23;8.30;;;4.85;;
63945;SDS011;50122;56.330;43.838;2022-10-23T15:58:50;7.90;;;5.13;;
63945;SDS011;50122;56.330;43.838;2022-10-23T16:01:17;7.22;;;4.65;;
63945;SDS011;50122;56.330;43.838;2022-10-23T16:03:44;7.18;;;4.15;;
63945;SDS011;50122;56.330;43.838;2022-10-23T16:06:12;8.23;;;4.70;;
63945;SDS011;50122;56.330;43.838;2022-10-23T16:08:41;6.57;;;4.28;;
63945;SDS011;50122;56.330;43.838;2022-10-23T16:11:28;8.10;;;4.00;;
63945;SDS011;50122;56.330;43.838;2022-10-23T16:13:57;6.60;;;3.95;;
63945;SDS011;50122;56.330;43.838;2022-10-23T16:16:26;12.05;;;4.40;;
63945;SDS011;50122;56.330;43.838;2022-10-23T16:18:53;7.40;;;3.60;;
63945;SDS011;50122;56.330;43.838;2022-10-23T16:21:21;7.15;;;3.55;;
63945;SDS011;50122;56.330;43.838;2022-10-23T16:23:50;8.73;;;4.10;;
63945;SDS011;50122;56.330;43.838;2022-10-23T16:26:21;6.90;;;3.88;;
63945;SDS011;50122;56.330;43.838;2022-10-23T16:28:57;8.10;;;4.45;;
63945;SDS011;50122;56.330;43.838;2022-10-23T16:31:29;6.72;;;4.03;;
63945;SDS011;50122;56.330;43.838;2022-10-23T16:34:00;8.13;;;3.88;;
63945;SDS011;50122;56.330;43.838;2022-10-23T16:36:28;7.25;;;4.38;;
63945;SDS011;50122;56.330;43.838;2022-10-23T16:38:55;10.38;;;4.63;;
63945;SDS011;50122;56.330;43.838;2022-10-23T16:41:23;8.25;;;4.15;;
63945;SDS011;50122;56.330;43.838;2022-10-23T16:43:51;7.97;;;4.45;;
63945;SDS011;50122;56.330;43.838;2022-10-23T16:46:18;9.65;;;4.05;;
63945;SDS011;50122;56.330;43.838;2022-10-23T16:48:47;6.55;;;4.18;;
63945;SDS011;50122;56.330;43.838;2022-10-23T16:51:16;6.53;;;4.07;;
63945;SDS011;50122;56.330;43.838;2022-10-23T16:53:45;7.45;;;3.85;;
63945;SDS011;50122;56.330;43.838;2022-10-23T16:56:14;8.65;;;4.03;;
63945;SDS011;50122;56.330;43.838;2022-10-23T16:58:43;8.13;;;4.22;;
63945;SDS011;50122;56.330;43.838;2022-10-23T17:01:12;8.77;;;5.03;;
63945;SDS011;50122;56.330;43.838;2022-10-23T17:03:42;10.40;;;5.15;;
63945;SDS011;50122;56.330;43.838;2022-10-23T17:06:14;9.18;;;5.10;;
63945;SDS011;50122;56.330;43.838;2022-10-23T17:08:47;10.20;;;5.93;;
63945;SDS011;50122;56.330;43.838;2022-10-23T17:11:27;8.75;;;4.70;;
63945;SDS011;50122;56.330;43.838;2022-10-23T17:13:57;9.45;;;4.55;;
63945;SDS011;50122;56.330;43.838;2022-10-23T17:16:50;7.43;;;4.82;;
63945;SDS011;50122;56.330;43.838;2022-10-23T17:19:18;7.53;;;4.53;;
63945;SDS011;50122;56.330;43.838;2022-10-23T17:22:06;8.95;;;4.32;;
63945;SDS011;50122;56.330;43.838;2022-10-23T17:24:36;7.63;;;4.20;;
63945;SDS011;50122;56.330;43.838;2022-10-23T17:27:04;15.45;;;8.40;;
63945;SDS011;50122;56.330;43.838;2022-10-23T17:29:31;8.45;;;4.40;;
63945;SDS011;50122;56.330;43.838;2022-10-23T17:31:58;9.93;;;4.53;;
63945;SDS011;50122;56.330;43.838;2022-10-23T17:34:25;8.98;;;4.90;;
63945;SDS011;50122;56.330;43.838;2022-10-23T17:36:52;7.40;;;4.15;;
63945;SDS011;50122;56.330;43.838;2022-10-23T17:39:21;7.22;;;4.30;;
63945;SDS011;50122;56.330;43.838;2022-10-23T17:41:52;7.22;;;4.18;;
63945;SDS011;50122;56.330;43.838;2022-10-23T17:44:19;6.72;;;4.18;;
63945;SDS011;50122;56.330;43.838;2022-10-23T17:46:48;9.18;;;4.38;;
63945;SDS011;50122;56.330;43.838;2022-10-23T17:49:19;6.93;;;4.10;;
63945;SDS011;50122;56.330;43.838;2022-10-23T17:51:49;6.85;;;3.90;;
63945;SDS011;50122;56.330;43.838;2022-10-23T17:54:17;10.82;;;3.88;;
63945;SDS011;50122;56.330;43.838;2022-10-23T17:56:44;7.32;;;3.72;;
63945;SDS011;50122;56.330;43.838;2022-10-23T17:59:12;7.78;;;4.30;;
63945;SDS011;50122;56.330;43.838;2022-10-23T18:01:41;8.55;;;4.10;;
63945;SDS011;50122;56.330;43.838;2022-10-23T18:04:09;9.15;;;3.85;;
63945;SDS011;50122;56.330;43.838;2022-10-23T18:06:39;6.93;;;3.88;;
63945;SDS011;50122;56.330;43.838;2022-10-23T18:09:12;9.05;;;4.10;;
63945;SDS011;50122;56.330;43.838;2022-10-23T18:11:40;10.77;;;6.20;;
63945;SDS011;50122;56.330;43.838;2022-10-23T18:14:13;11.02;;;6.80;;
63945;SDS011;50122;56.330;43.838;2022-10-23T18:16:40;6.00;;;3.40;;
63945;SDS011;50122;56.330;43.838;2022-10-23T18:19:07;7.47;;;3.47;;
63945;SDS011;50122;56.330;43.838;2022-10-23T18:21:34;6.32;;;3.72;;
63945;SDS011;50122;56.330;43.838;2022-10-23T18:24:03;6.40;;;3.50;;
63945;SDS011;50122;56.330;43.838;2022-10-23T18:26:30;4.60;;;2.95;;
63945;SDS011;50122;56.330;43.838;2022-10-23T18:29:00;7.45;;;3.55;;
63945;SDS011;50122;56.330;43.838;2022-10-23T18:31:29;6.18;;;3.40;;
63945;SDS011;50122;56.330;43.838;2022-10-23T18:33:56;5.75;;;3.50;;
63945;SDS011;50122;56.330;43.838;2022-10-23T18:36:27;7.13;;;3.50;;
63945;SDS011;50122;56.330;43.838;2022-10-23T18:38:55;6.53;;;3.80;;
63945;SDS011;50122;56.330;43.838;2022-10-23T18:41:22;6.40;;;3.10;;
63945;SDS011;50122;56.330;43.838;2022-10-23T18:43:50;6.40;;;3.50;;
63945;SDS011;50122;56.330;43.838;2022-10-23T18:46:19;5.43;;;3.05;;
63945;SDS011;50122;56.330;43.838;2022-10-23T18:48:46;6.65;;;3.20;;
63945;SDS011;50122;56.330;43.838;2022-10-23T18:51:20;6.38;;;2.88;;
63945;SDS011;50122;56.330;43.838;2022-10-23T18:53:48;6.43;;;3.55;;
63945;SDS011;50122;56.330;43.838;2022-10-23T18:56:16;5.40;;;3.15;;
63945;SDS011;50122;56.330;43.838;2022-10-23T18:58:55;5.70;;;3.45;;
63945;SDS011;50122;56.330;43.838;2022-10-23T19:01:23;6.20;;;3.07;;
63945;SDS011;50122;56.330;43.838;2022-10-23T19:03:52;6.57;;;3.63;;
63945;SDS011;50122;56.330;43.838;2022-10-23T19:06:24;8.15;;;3.63;;
63945;SDS011;50122;56.330;43.838;2022-10-23T19:08:52;6.10;;;3.58;;
63945;SDS011;50122;56.330;43.838;2022-10-23T19:11:20;9.05;;;3.58;;
63945;SDS011;50122;56.330;43.838;2022-10-23T19:13:48;7.38;;;3.67;;
63945;SDS011;50122;56.330;43.838;2022-10-23T19:16:17;8.00;;;3.90;;
63945;SDS011;50122;56.330;43.838;2022-10-23T19:18:49;10.50;;;4.40;;
63945;SDS011;50122;56.330;43.838;2022-10-23T19:21:19;8.18;;;4.03;;
63945;SDS011;50122;56.330;43.838;2022-10-23T19:23:51;7.88;;;4.20;;
63945;SDS011;50122;56.330;43.838;2022-10-23T19:26:18;5.95;;;3.63;;
63945;SDS011;50122;56.330;43.838;2022-10-23T19:28:45;10.48;;;4.10;;
63945;SDS011;50122;56.330;43.838;2022-10-23T19:31:14;8.60;;;3.40;;
63945;SDS011;50122;56.330;43.838;2022-10-23T19:33:41;6.80;;;3.88;;
63945;SDS011;50122;56.330;43.838;2022-10-23T19:36:08;8.85;;;4.22;;
63945;SDS011;50122;56.330;43.838;2022-10-23T19:38:39;5.40;;;3.42;;
63945;SDS011;50122;56.330;43.838;2022-10-23T19:41:07;5.72;;;3.80;;
63945;SDS011;50122;56.330;43.838;2022-10-23T19:43:34;6.22;;;3.65;;
63945;SDS011;50122;56.330;43.838;2022-10-23T19:46:03;7.03;;;3.80;;
63945;SDS011;50122;56.330;43.838;2022-10-23T19:48:37;8.57;;;4.72;;
63945;SDS011;50122;56.330;43.838;2022-10-23T19:51:08;11.35;;;5.03;;
63945;SDS011;50122;56.330;43.838;2022-10-23T19:53:35;8.60;;;5.18;;
63945;SDS011;50122;56.330;43.838;2022-10-23T19:56:03;10.50;;;5.32;;
63945;SDS011;50122;56.330;43.838;2022-10-23T19:58:34;7.32;;;4.50;;
63945;SDS011;50122;56.330;43.838;2022-10-23T20:01:07;8.95;;;3.80;;
63945;SDS011;50122;56.330;43.838;2022-10-23T20:03:37;7.13;;;4.20;;
63945;SDS011;50122;56.330;43.838;2022-10-23T20:06:06;8.63;;;3.60;;
63945;SDS011;50122;56.330;43.838;2022-10-23T20:08:38;6.25;;;3.80;;
63945;SDS011;50122;56.330;43.838;2022-10-23T20:11:06;9.10;;;3.97;;
63945;SDS011;50122;56.330;43.838;2022-10-23T20:13:34;6.22;;;3.90;;
63945;SDS011;50122;56.330;43.838;2022-10-23T20:16:01;8.98;;;4.00;;
63945;SDS011;50122;56.330;43.838;2022-10-23T20:18:28;7.80;;;4.38;;
63945;SDS011;50122;56.330;43.838;2022-10-23T20:20:55;7.60;;;3.97;;
63945;SDS011;50122;56.330;43.838;2022-10-23T20:23:21;6.45;;;3.70;;
63945;SDS011;50122;56.330;43.838;2022-10-23T20:25:49;7.22;;;3.92;;
63945;SDS011;50122;56.330;43.838;2022-10-23T20:28:15;7.75;;;4.25;;
63945;SDS011;50122;56.330;43.838;2022-10-23T20:30:42;7.38;;;4.10;;
63945;SDS011;50122;56.330;43.838;2022-10-23T20:33:11;6.10;;;3.70;;
63945;SDS011;50122;56.330;43.838;2022-10-23T20:35:41;9.95;;;4.70;;
63945;SDS011;50122;56.330;43.838;2022-10-23T20:38:08;5.80;;;3.85;;
63945;SDS011;50122;56.330;43.838;2022-10-23T20:40:35;6.63;;;4.47;;
63945;SDS011;50122;56.330;43.838;2022-10-23T20:43:04;7.80;;;4.50;;
63945;SDS011;50122;56.330;43.838;2022-10-23T20:45:30;7.38;;;4.80;;
63945;SDS011;50122;56.330;43.838;2022-10-23T20:47:57;6.43;;;3.90;;
63945;SDS011;50122;56.330;43.838;2022-10-23T20:50:24;6.95;;;4.68;;
63945;SDS011;50122;56.330;43.838;2022-10-23T20:52:50;7.03;;;4.53;;
63945;SDS011;50122;56.330;43.838;2022-10-23T20:55:23;7.30;;;4.72;;
63945;SDS011;50122;56.330;43.838;2022-10-23T20:57:49;6.65;;;4.53;;
63945;SDS011;50122;56.330;43.838;2022-10-23T21:00:16;8.02;;;4.82;;
63945;SDS011;50122;56.330;43.838;2022-10-23T21:02:43;6.85;;;4.57;;
63945;SDS011;50122;56.330;43.838;2022-10-23T21:05:15;9.45;;;4.72;;
63945;SDS011;50122;56.330;43.838;2022-10-23T21:07:41;7.53;;;4.65;;
63945;SDS011;50122;56.330;43.838;2022-10-23T21:10:10;9.60;;;5.18;;
63945;SDS011;50122;56.330;43.838;2022-10-23T21:12:36;7.20;;;4.63;;
63945;SDS011;50122;56.330;43.838;2022-10-23T21:15:03;8.23;;;4.70;;
63945;SDS011;50122;56.330;43.838;2022-10-23T21:17:30;8.43;;;5.20;;
63945;SDS011;50122;56.330;43.838;2022-10-23T21:20:01;7.75;;;4.68;;
63945;SDS011;50122;56.330;43.838;2022-10-23T21:22:28;8.00;;;4.75;;
63945;SDS011;50122;56.330;43.838;2022-10-23T21:24:54;7.65;;;4.97;;
63945;SDS011;50122;56.330;43.838;2022-10-23T21:27:22;8.18;;;5.45;;
63945;SDS011;50122;56.330;43.838;2022-10-23T21:29:48;8.35;;;5.07;;
63945;SDS011;50122;56.330;43.838;2022-10-23T21:32:16;6.82;;;4.93;;
63945;SDS011;50122;56.330;43.838;2022-10-23T21:34:44;9.15;;;5.15;;
63945;SDS011;50122;56.330;43.838;2022-10-23T21:37:10;7.45;;;4.80;;
63945;SDS011;50122;56.330;43.838;2022-10-23T21:39:40;7.82;;;4.75;;
63945;SDS011;50122;56.330;43.838;2022-10-23T21:42:11;8.50;;;4.85;;
63945;SDS011;50122;56.330;43.838;2022-10-23T21:44:39;7.35;;;4.55;;
63945;SDS011;50122;56.330;43.838;2022-10-23T21:47:06;7.50;;;4.10;;
63945;SDS011;50122;56.330;43.838;2022-10-23T21:49:33;9.43;;;5.00;;
63945;SDS011;50122;56.330;43.838;2022-10-23T21:52:00;7.50;;;4.47;;
63945;SDS011;50122;56.330;43.838;2022-10-23T21:54:26;7.68;;;4.78;;
63945;SDS011;50122;56.330;43.838;2022-10-23T21:56:53;6.65;;;4.30;;
63945;SDS011;50122;56.330;43.838;2022-10-23T21:59:21;6.40;;;4.30;;
63945;SDS011;50122;56.330;43.838;2022-10-23T22:01:51;7.93;;;4.82;;
63945;SDS011;50122;56.330;43.838;2022-10-23T22:04:18;7.80;;;5.05;;
63945;SDS011;50122;56.330;43.838;2022-10-23T22:06:46;8.85;;;4.90;;
63945;SDS011;50122;56.330;43.838;2022-10-23T22:09:16;8.32;;;4.72;;
63945;SDS011;50122;56.330;43.838;2022-10-23T22:11:45;7.80;;;4.97;;
63945;SDS011;50122;56.330;43.838;2022-10-23T22:14:12;7.00;;;4.70;;
63945;SDS011;50122;56.330;43.838;2022-10-23T22:16:39;6.70;;;4.47;;
63945;SDS011;50122;56.330;43.838;2022-10-23T22:19:09;7.93;;;4.72;;
63945;SDS011;50122;56.330;43.838;2022-10-23T22:21:37;7.47;;;4.78;;
63945;SDS011;50122;56.330;43.838;2022-10-23T22:24:05;7.85;;;5.43;;
63945;SDS011;50122;56.330;43.838;2022-10-23T22:26:34;7.03;;;4.70;;
63945;SDS011;50122;56.330;43.838;2022-10-23T22:29:04;6.68;;;4.60;;
63945;SDS011;50122;56.330;43.838;2022-10-23T22:31:32;7.75;;;5.25;;
63945;SDS011;50122;56.330;43.838;2022-10-23T22:34:01;7.53;;;4.50;;
63945;SDS011;50122;56.330;43.838;2022-10-23T22:36:49;7.55;;;4.28;;
63945;SDS011;50122;56.330;43.838;2022-10-23T22:39:16;7.13;;;4.15;;
63945;SDS011;50122;56.330;43.838;2022-10-23T22:41:43;6.78;;;4.07;;
63945;SDS011;50122;56.330;43.838;2022-10-23T22:44:10;7.18;;;4.05;;
63945;SDS011;50122;56.330;43.838;2022-10-23T22:46:37;7.32;;;4.32;;
63945;SDS011;50122;56.330;43.838;2022-10-23T22:49:04;5.82;;;4.05;;
63945;SDS011;50122;56.330;43.838;2022-10-23T22:51:32;8.57;;;4.90;;
63945;SDS011;50122;56.330;43.838;2022-10-23T22:53:59;7.65;;;4.60;;
63945;SDS011;50122;56.330;43.838;2022-10-23T22:56:27;6.40;;;4.22;;
63945;SDS011;50122;56.330;43.838;2022-10-23T22:58:55;6.88;;;4.07;;
63945;SDS011;50122;56.330;43.838;2022-10-23T23:01:23;6.53;;;3.92;;
63945;SDS011;50122;56.330;43.838;2022-10-23T23:04:13;6.90;;;4.00;;
63945;SDS011;50122;56.330;43.838;2022-10-23T23:07:03;5.25;;;3.33;;
63945;SDS011;50122;56.330;43.838;2022-10-23T23:09:34;6.65;;;3.88;;
63945;SDS011;50122;56.330;43.838;2022-10-23T23:12:05;6.15;;;3.85;;
63945;SDS011;50122;56.330;43.838;2022-10-23T23:14:32;5.53;;;3.92;;
63945;SDS011;50122;56.330;43.838;2022-10-23T23:16:59;4.72;;;3.22;;
63945;SDS011;50122;56.330;43.838;2022-10-23T23:19:26;6.00;;;3.90;;
63945;SDS011;50122;56.330;43.838;2022-10-23T23:21:54;5.63;;;3.75;;
63945;SDS011;50122;56.330;43.838;2022-10-23T23:24:23;6.47;;;4.15;;
63945;SDS011;50122;56.330;43.838;2022-10-23T23:26:50;5.15;;;3.47;;
63945;SDS011;50122;56.330;43.838;2022-10-23T23:29:17;5.25;;;3.35;;
63945;SDS011;50122;56.330;43.838;2022-10-23T23:31:45;6.20;;;3.13;;
63945;SDS011;50122;56.330;43.838;2022-10-23T23:34:12;6.22;;;3.55;;
63945;SDS011;50122;56.330;43.838;2022-10-23T23:36:39;5.65;;;3.33;;
63945;SDS011;50122;56.330;43.838;2022-10-23T23:39:06;5.97;;;3.90;;
63945;SDS011;50122;56.330;43.838;2022-10-23T23:41:33;4.47;;;3.20;;
63945;SDS011;50122;56.330;43.838;2022-10-23T23:44:00;5.10;;;3.35;;
63945;SDS011;50122;56.330;43.838;2022-10-23T23:46:27;5.30;;;2.83;;
63945;SDS011;50122;56.330;43.838;2022-10-23T23:48:54;5.30;;;3.40;;
63945;SDS011;50122;56.330;43.838;2022-10-23T23:51:22;4.90;;;3.20;;
63945;SDS011;50122;56.330;43.838;2022-10-23T23:53:50;4.78;;;3.03;;
63945;SDS011;50122;56.330;43.838;2022-10-23T23:56:18;4.65;;;3.00;;
63945;SDS011;50122;56.330;43.838;2022-10-23T23:58:45;5.20;;;2.92;;
